sensor_id;sensor_type;location;lat;lon;timestamp;pressure;altitude;pressure_sealevel;temperature;humidity
26915;BME280;14480;52.608;13.416;2023-02-23T08:41:03;141441.13;;;-10.45;100.00
26915;BME280;14480;52.608;13.416;2023-02-23T08:46:07;141521.22;;;-10.12;100.00
26915;BME280;14480;52.608;13.416;2023-02-23T08:51:11;141626.03;;;-9.69;100.00
26915;BME280;14480;52.608;13.416;2023-02-23T08:56:16;141672.88;;;-9.50;100.00
26915;BME280;14480;52.608;13.416;2023-02-23T09:01:20;141682.78;;;-9.46;100.00
26915;BME280;14480;52.608;13.416;2023-02-23T09:06:24;141684.00;;;-9.45;100.00
26915;BME280;14480;52.608;13.416;2023-02-23T09:11:29;141742.00;;;-9.21;100.00
26915;BME280;14480;52.608;13.416;2023-02-23T09:16:32;141777.78;;;-9.06;100.00
26915;BME280;14480;52.608;13.416;2023-02-23T09:21:36;141796.31;;;-8.99;100.00
26915;BME280;14480;52.608;13.416;2023-02-23T09:26:41;141861.72;;;-8.72;100.00
26915;BME280;14480;52.608;13.416;2023-02-23T09:31:46;141917.28;;;-8.49;100.00
26915;BME280;14480;52.608;13.416;2023-02-23T09:36:52;141945.69;;;-8.37;100.00
26915;BME280;14480;52.608;13.416;2023-02-23T09:42:05;141993.81;;;-8.17;100.00
26915;BME280;14480;52.608;13.416;2023-02-23T09:47:16;142034.56;;;-8.01;100.00
26915;BME280;14480;52.608;13.416;2023-02-23T09:52:24;142108.72;;;-7.70;100.00
26915;BME280;14480;52.608;13.416;2023-02-23T09:57:32;142179.13;;;-7.41;100.00
26915;BME280;14480;52.608;13.416;2023-02-23T10:02:41;142218.72;;;-7.25;100.00
26915;BME280;14480;52.608;13.416;2023-02-23T10:07:53;142308.97;;;-6.88;100.00
26915;BME280;14480;52.608;13.416;2023-02-23T10:13:00;142322.59;;;-6.82;100.00
26915;BME280;14480;52.608;13.416;2023-02-23T10:18:11;142369.56;;;-6.63;100.00
26915;BME280;14480;52.608;13.416;2023-02-23T10:23:17;142453.69;;;-6.28;100.00
26915;BME280;14480;52.608;13.416;2023-02-23T10:28:25;142463.59;;;-6.24;100.00
26915;BME280;14480;52.608;13.416;2023-02-23T10:33:30;142446.28;;;-6.31;100.00
26915;BME280;14480;52.608;13.416;2023-02-23T10:38:34;142504.44;;;-6.07;100.00
26915;BME280;14480;52.608;13.416;2023-02-23T10:43:42;142471.03;;;-6.21;100.00
26915;BME280;14480;52.608;13.416;2023-02-23T10:48:45;142544.00;;;-5.91;100.00
26915;BME280;14480;52.608;13.416;2023-02-23T10:53:49;142562.56;;;-5.83;100.00
26915;BME280;14480;52.608;13.416;2023-02-23T10:58:56;142662.84;;;-5.42;100.00
26915;BME280;14480;52.608;13.416;2023-02-23T11:04:11;142755.72;;;-5.04;100.00
26915;BME280;14480;52.608;13.416;2023-02-23T11:09:17;142854.81;;;-4.63;100.00
26915;BME280;14480;52.608;13.416;2023-02-23T11:14:44;142820.13;;;-4.78;100.00
26915;BME280;14480;52.608;13.416;2023-02-23T11:19:48;142833.78;;;-4.72;100.00
26915;BME280;14480;52.608;13.416;2023-02-23T11:24:51;142884.59;;;-4.51;100.00
26915;BME280;14480;52.608;13.416;2023-02-23T11:29:57;142842.44;;;-4.68;100.00
26915;BME280;14480;52.608;13.416;2023-02-23T11:35:13;142857.34;;;-4.62;100.00
26915;BME280;14480;52.608;13.416;2023-02-23T11:40:18;142929.19;;;-4.33;100.00
26915;BME280;14480;52.608;13.416;2023-02-23T11:45:25;142996.09;;;-4.05;100.00
26915;BME280;14480;52.608;13.416;2023-02-23T11:50:30;143029.63;;;-3.92;100.00
26915;BME280;14480;52.608;13.416;2023-02-23T11:55:36;143076.72;;;-3.72;100.00
26915;BME280;14480;52.608;13.416;2023-02-23T12:00:41;143048.19;;;-3.84;100.00
26915;BME280;14480;52.608;13.416;2023-02-23T12:05:48;143025.91;;;-3.93;100.00
26915;BME280;14480;52.608;13.416;2023-02-23T12:10:53;143066.81;;;-3.76;100.00
26915;BME280;14480;52.608;13.416;2023-02-23T12:16:01;143107.72;;;-3.60;100.00
26915;BME280;14480;52.608;13.416;2023-02-23T12:21:11;143127.56;;;-3.52;100.00
26915;BME280;14480;52.608;13.416;2023-02-23T12:26:20;143154.88;;;-3.40;100.00
26915;BME280;14480;52.608;13.416;2023-02-23T12:31:27;143203.25;;;-3.20;100.00
26915;BME280;14480;52.608;13.416;2023-02-23T12:36:35;143148.69;;;-3.43;100.00
26915;BME280;14480;52.608;13.416;2023-02-23T12:41:42;143241.72;;;-3.05;100.00
26915;BME280;14480;52.608;13.416;2023-02-23T12:46:49;143256.63;;;-2.99;100.00
26915;BME280;14480;52.608;13.416;2023-02-23T12:51:57;143239.22;;;-3.06;100.00
26915;BME280;14480;52.608;13.416;2023-02-23T12:57:08;143252.91;;;-3.00;100.00
26915;BME280;14480;52.608;13.416;2023-02-23T13:02:19;143291.38;;;-2.84;100.00
26915;BME280;14480;52.608;13.416;2023-02-23T13:07:28;143288.88;;;-2.85;100.00
26915;BME280;14480;52.608;13.416;2023-02-23T13:12:38;143236.75;;;-3.07;100.00
26915;BME280;14480;52.608;13.416;2023-02-23T13:17:48;143251.66;;;-3.01;100.00
26915;BME280;14480;52.608;13.416;2023-02-23T13:22:54;143270.25;;;-2.93;100.00
26915;BME280;14480;52.608;13.416;2023-02-23T13:28:00;143226.84;;;-3.11;100.00
26915;BME280;14480;52.608;13.416;2023-02-23T13:33:09;143154.88;;;-3.40;100.00
26915;BME280;14480;52.608;13.416;2023-02-23T13:38:19;143135.00;;;-3.48;100.00
26915;BME280;14480;52.608;13.416;2023-02-23T13:43:26;143159.81;;;-3.38;100.00
26915;BME280;14480;52.608;13.416;2023-02-23T13:54:03;143094.09;;;-3.65;100.00
26915;BME280;14480;52.608;13.416;2023-02-23T13:59:09;143024.63;;;-3.94;100.00
26915;BME280;14480;52.608;13.416;2023-02-23T14:04:20;142983.72;;;-4.11;100.00
26915;BME280;14480;52.608;13.416;2023-02-23T14:09:28;142967.59;;;-4.17;100.00
26915;BME280;14480;52.608;13.416;2023-02-23T14:14:41;142945.31;;;-4.26;100.00
26915;BME280;14480;52.608;13.416;2023-02-23T14:19:58;142904.38;;;-4.43;100.00
26915;BME280;14480;52.608;13.416;2023-02-23T14:30:42;142862.28;;;-4.60;100.00
26915;BME280;14480;52.608;13.416;2023-02-23T14:35:46;142830.06;;;-4.74;100.00
26915;BME280;14480;52.608;13.416;2023-02-23T14:40:51;142809.00;;;-4.82;100.00
26915;BME280;14480;52.608;13.416;2023-02-23T14:45:57;142734.66;;;-5.13;100.00
26915;BME280;14480;52.608;13.416;2023-02-23T14:51:09;142721.06;;;-5.18;100.00
26915;BME280;14480;52.608;13.416;2023-02-23T14:56:18;142714.88;;;-5.21;100.00
26915;BME280;14480;52.608;13.416;2023-02-23T15:01:34;142726.00;;;-5.16;100.00
26915;BME280;14480;52.608;13.416;2023-02-23T15:06:38;142712.34;;;-5.22;100.00
26915;BME280;14480;52.608;13.416;2023-02-23T15:11:43;142703.69;;;-5.25;100.00
26915;BME280;14480;52.608;13.416;2023-02-23T15:16:52;142709.88;;;-5.23;100.00
26915;BME280;14480;52.608;13.416;2023-02-23T15:21:58;142707.41;;;-5.24;100.00
26915;BME280;14480;52.608;13.416;2023-02-23T15:27:02;142677.69;;;-5.36;100.00
26915;BME280;14480;52.608;13.416;2023-02-23T15:32:11;142654.16;;;-5.46;100.00
26915;BME280;14480;52.608;13.416;2023-02-23T15:37:19;142605.91;;;-5.66;100.00
26915;BME280;14480;52.608;13.416;2023-02-23T15:42:28;142576.19;;;-5.78;100.00
26915;BME280;14480;52.608;13.416;2023-02-23T15:47:35;142560.06;;;-5.84;100.00
26915;BME280;14480;52.608;13.416;2023-02-23T15:52:43;142534.13;;;-5.95;100.00
26915;BME280;14480;52.608;13.416;2023-02-23T15:57:51;142525.47;;;-5.99;100.00
26915;BME280;14480;52.608;13.416;2023-02-23T16:02:56;142519.31;;;-6.01;100.00
26915;BME280;14480;52.608;13.416;2023-02-23T16:08:00;142493.31;;;-6.12;100.00
26915;BME280;14480;52.608;13.416;2023-02-23T16:13:08;142459.84;;;-6.26;100.00
26915;BME280;14480;52.608;13.416;2023-02-23T16:18:15;142451.22;;;-6.29;100.00
26915;BME280;14480;52.608;13.416;2023-02-23T16:23:24;142426.47;;;-6.39;100.00
26915;BME280;14480;52.608;13.416;2023-02-23T16:28:40;142399.25;;;-6.51;100.00
26915;BME280;14480;52.608;13.416;2023-02-23T16:33:49;142374.50;;;-6.61;100.00
26915;BME280;14480;52.608;13.416;2023-02-23T16:38:55;142364.63;;;-6.65;100.00
26915;BME280;14480;52.608;13.416;2023-02-23T16:44:03;142349.81;;;-6.71;100.00
26915;BME280;14480;52.608;13.416;2023-02-23T16:49:08;142344.81;;;-6.73;100.00
26915;BME280;14480;52.608;13.416;2023-02-23T16:54:14;142352.28;;;-6.70;100.00
26915;BME280;14480;52.608;13.416;2023-02-23T16:59:17;142315.13;;;-6.85;100.00
26915;BME280;14480;52.608;13.416;2023-02-23T17:04:22;142310.19;;;-6.87;100.00
26915;BME280;14480;52.608;13.416;2023-02-23T17:09:26;142301.56;;;-6.91;100.00
26915;BME280;14480;52.608;13.416;2023-02-23T17:14:29;142286.69;;;-6.97;100.00
26915;BME280;14480;52.608;13.416;2023-02-23T17:19:35;142291.63;;;-6.95;100.00
26915;BME280;14480;52.608;13.416;2023-02-23T17:24:39;142280.53;;;-6.99;100.00
26915;BME280;14480;52.608;13.416;2023-02-23T17:29:42;142268.19;;;-7.04;100.00
26915;BME280;14480;52.608;13.416;2023-02-23T17:34:47;142224.88;;;-7.22;100.00
26915;BME280;14480;52.608;13.416;2023-02-23T17:39:53;142223.66;;;-7.23;100.00
26915;BME280;14480;52.608;13.416;2023-02-23T17:44:56;142218.72;;;-7.25;100.00
26915;BME280;14480;52.608;13.416;2023-02-23T17:50:01;142210.06;;;-7.28;100.00
26915;BME280;14480;52.608;13.416;2023-02-23T17:55:06;142221.19;;;-7.24;100.00
26915;BME280;14480;52.608;13.416;2023-02-23T18:00:12;142191.50;;;-7.36;100.00
26915;BME280;14480;52.608;13.416;2023-02-23T18:05:18;142198.91;;;-7.33;100.00
26915;BME280;14480;52.608;13.416;2023-02-23T18:10:21;142198.91;;;-7.33;100.00
26915;BME280;14480;52.608;13.416;2023-02-23T18:15:26;142186.59;;;-7.38;100.00
26915;BME280;14480;52.608;13.416;2023-02-23T18:20:31;142171.72;;;-7.44;100.00
26915;BME280;14480;52.608;13.416;2023-02-23T18:25:37;142170.50;;;-7.45;100.00
26915;BME280;14480;52.608;13.416;2023-02-23T18:30:40;142172.97;;;-7.44;100.00
26915;BME280;14480;52.608;13.416;2023-02-23T18:35:45;142158.16;;;-7.50;100.00
26915;BME280;14480;52.608;13.416;2023-02-23T18:40:49;142191.50;;;-7.36;100.00
26915;BME280;14480;52.608;13.416;2023-02-23T18:45:54;142155.69;;;-7.51;100.00
26915;BME280;14480;52.608;13.416;2023-02-23T18:51:00;142148.22;;;-7.54;100.00
26915;BME280;14480;52.608;13.416;2023-02-23T18:56:07;142126.03;;;-7.63;100.00
26915;BME280;14480;52.608;13.416;2023-02-23T19:01:11;142129.72;;;-7.61;100.00
26915;BME280;14480;52.608;13.416;2023-02-23T19:06:16;142133.44;;;-7.60;100.00
26915;BME280;14480;52.608;13.416;2023-02-23T19:11:20;142108.72;;;-7.70;100.00
26915;BME280;14480;52.608;13.416;2023-02-23T19:16:25;142113.66;;;-7.68;100.00
26915;BME280;14480;52.608;13.416;2023-02-23T19:21:30;142103.78;;;-7.72;100.00
26915;BME280;14480;52.608;13.416;2023-02-23T19:26:34;142095.09;;;-7.76;100.00
26915;BME280;14480;52.608;13.416;2023-02-23T19:31:38;142084.00;;;-7.80;100.00
26915;BME280;14480;52.608;13.416;2023-02-23T19:36:43;142071.66;;;-7.85;100.00
26915;BME280;14480;52.608;13.416;2023-02-23T19:41:47;141969.09;;;-8.28;100.00
26915;BME280;14480;52.608;13.416;2023-02-23T19:46:50;142060.50;;;-7.90;100.00
26915;BME280;14480;52.608;13.416;2023-02-23T19:51:55;141992.59;;;-8.18;100.00
26915;BME280;14480;52.608;13.416;2023-02-23T19:56:58;141869.13;;;-8.69;100.00
26915;BME280;14480;52.608;13.416;2023-02-23T20:02:02;141830.84;;;-8.85;100.00
26915;BME280;14480;52.608;13.416;2023-02-23T20:07:07;141832.09;;;-8.84;100.00
26915;BME280;14480;52.608;13.416;2023-02-23T20:12:10;141871.63;;;-8.68;100.00
26915;BME280;14480;52.608;13.416;2023-02-23T20:17:14;141837.03;;;-8.82;100.00
26915;BME280;14480;52.608;13.416;2023-02-23T20:22:19;141807.41;;;-8.94;100.00
26915;BME280;14480;52.608;13.416;2023-02-23T20:27:25;141780.25;;;-9.05;100.00
26915;BME280;14480;52.608;13.416;2023-02-23T20:32:31;141798.78;;;-8.98;100.00
26915;BME280;14480;52.608;13.416;2023-02-23T20:37:36;141754.31;;;-9.16;100.00
26915;BME280;14480;52.608;13.416;2023-02-23T20:42:39;141771.63;;;-9.09;100.00
26915;BME280;14480;52.608;13.416;2023-02-23T20:47:44;141751.84;;;-9.17;100.00
26915;BME280;14480;52.608;13.416;2023-02-23T20:52:51;141570.53;;;-9.92;100.00
26915;BME280;14480;52.608;13.416;2023-02-23T20:57:55;141732.16;;;-9.25;100.00
26915;BME280;14480;52.608;13.416;2023-02-23T21:02:59;141722.25;;;-9.29;100.00
26915;BME280;14480;52.608;13.416;2023-02-23T21:08:04;141763.00;;;-9.13;100.00
26915;BME280;14480;52.608;13.416;2023-02-23T21:13:08;141742.00;;;-9.21;100.00
26915;BME280;14480;52.608;13.416;2023-02-23T21:18:12;141729.63;;;-9.26;100.00
26915;BME280;14480;52.608;13.416;2023-02-23T21:23:17;141732.16;;;-9.25;100.00
26915;BME280;14480;52.608;13.416;2023-02-23T21:28:22;141761.75;;;-9.13;100.00
26915;BME280;14480;52.608;13.416;2023-02-23T21:33:25;141692.63;;;-9.42;100.00
26915;BME280;14480;52.608;13.416;2023-02-23T21:38:30;141700.03;;;-9.38;100.00
26915;BME280;14480;52.608;13.416;2023-02-23T21:43:36;141733.38;;;-9.25;100.00
26915;BME280;14480;52.608;13.416;2023-02-23T21:48:39;141748.16;;;-9.19;100.00
26915;BME280;14480;52.608;13.416;2023-02-23T21:53:44;141735.84;;;-9.24;100.00
26915;BME280;14480;52.608;13.416;2023-02-23T21:58:48;141738.31;;;-9.23;100.00
26915;BME280;14480;52.608;13.416;2023-02-23T22:03:52;141761.75;;;-9.13;100.00
26915;BME280;14480;52.608;13.416;2023-02-23T22:08:57;141742.00;;;-9.21;100.00
26915;BME280;14480;52.608;13.416;2023-02-23T22:14:00;141743.22;;;-9.21;100.00
26915;BME280;14480;52.608;13.416;2023-02-23T22:19:06;141755.56;;;-9.16;100.00
26915;BME280;14480;52.608;13.416;2023-02-23T22:24:14;141754.31;;;-9.16;100.00
26915;BME280;14480;52.608;13.416;2023-02-23T22:29:17;141738.31;;;-9.23;100.00
26915;BME280;14480;52.608;13.416;2023-02-23T22:34:22;141745.69;;;-9.20;100.00
